createdAt,value
2023-09-08T00:00:15.481Z,101322.11
2023-09-08T00:02:43.429Z,101319.09
2023-09-08T00:05:11.521Z,101316.73
2023-09-08T00:07:39.598Z,101315.23
2023-09-08T00:10:08.995Z,101316.23
2023-09-08T00:12:37.193Z,101318.11
2023-09-08T00:15:07.184Z,101312.65
2023-09-08T00:17:37.080Z,101312.35
2023-09-08T00:20:09.527Z,101312.73
2023-09-08T00:22:38.382Z,101319.40
2023-09-08T00:25:08.194Z,101321.78
2023-09-08T00:27:36.532Z,101322.77
2023-09-08T00:30:06.442Z,101321.92
2023-09-08T00:32:34.784Z,101322.20
2023-09-08T00:35:03.121Z,101317.83
2023-09-08T00:37:31.293Z,101311.63
2023-09-08T00:39:59.668Z,101308.67
2023-09-08T00:42:27.969Z,101310.59
2023-09-08T00:44:56.620Z,101305.25
2023-09-08T00:47:24.576Z,101302.84
2023-09-08T00:49:52.573Z,101303.42
2023-09-08T00:52:21.261Z,101302.86
2023-09-08T00:54:49.582Z,101301.39
2023-09-08T00:57:18.160Z,101303.29
2023-09-08T00:59:47.443Z,101302.14
2023-09-08T01:02:15.667Z,101300.47
2023-09-08T01:04:45.516Z,101301.36
2023-09-08T01:07:15.026Z,101297.73
2023-09-08T01:09:43.272Z,101298.02
2023-09-08T01:12:11.696Z,101296.66
2023-09-08T01:14:39.711Z,101299.52
2023-09-08T01:17:07.857Z,101292.85
2023-09-08T01:19:37.544Z,101288.54
2023-09-08T01:22:22.874Z,101288.88
2023-09-08T01:25:17.214Z,101291.40
2023-09-08T01:27:49.521Z,101288.48
2023-09-08T01:30:18.654Z,101289.65
2023-09-08T01:32:47.636Z,101288.67
2023-09-08T01:35:16.121Z,101291.71
2023-09-08T01:37:46.703Z,101296.38
2023-09-08T01:40:15.557Z,101291.71
2023-09-08T01:42:43.763Z,101288.05
2023-09-08T01:45:12.161Z,101292.02
2023-09-08T01:47:40.755Z,101291.42
2023-09-08T01:50:10.327Z,101285.98
2023-09-08T01:52:38.604Z,101281.77
2023-09-08T01:55:08.443Z,101279.21
2023-09-08T01:57:36.561Z,101277.34
2023-09-08T02:00:06.791Z,101279.77
2023-09-08T02:02:34.739Z,101276.58
2023-09-08T02:05:02.661Z,101274.88
2023-09-08T02:07:31.800Z,101273.84
2023-09-08T02:10:00.254Z,101270.69
2023-09-08T02:12:29.130Z,101271.92
2023-09-08T02:14:58.107Z,101271.19
2023-09-08T02:17:25.923Z,101267.15
2023-09-08T02:19:53.096Z,101266.95
2023-09-08T02:22:20.810Z,101263.59
2023-09-08T02:24:47.951Z,101264.27
2023-09-08T02:27:16.426Z,101261.86
2023-09-08T02:29:45.017Z,101259.45
2023-09-08T02:32:14.664Z,101254.07
2023-09-08T02:34:42.993Z,101253.10
2023-09-08T02:37:10.759Z,101255.89
2023-09-08T02:39:37.960Z,101252.46
2023-09-08T02:42:06.204Z,101252.42
2023-09-08T02:44:33.955Z,101255.20
2023-09-08T02:47:00.779Z,101252.45
2023-09-08T02:49:29.009Z,101249.84
2023-09-08T02:51:56.810Z,101254.94
2023-09-08T02:54:23.694Z,101249.24
2023-09-08T02:56:51.381Z,101248.75
2023-09-08T02:59:18.202Z,101247.70
2023-09-08T03:01:46.759Z,101245.52
2023-09-08T03:04:14.727Z,101249.20
2023-09-08T03:06:42.526Z,101247.42
2023-09-08T03:09:09.449Z,101248.98
2023-09-08T03:11:38.113Z,101248.99
2023-09-08T03:14:06.021Z,101250.33
2023-09-08T03:16:34.700Z,101248.33
2023-09-08T03:19:02.567Z,101249.77
2023-09-08T03:21:29.623Z,101250.45
2023-09-08T03:23:57.862Z,101251.02
2023-09-08T03:26:25.672Z,101253.95
2023-09-08T03:28:52.970Z,101252.55
2023-09-08T03:31:20.916Z,101252.42
2023-09-08T03:33:48.902Z,101247.90
2023-09-08T03:36:17.565Z,101242.33
2023-09-08T03:38:45.729Z,101246.29
2023-09-08T03:41:13.810Z,101244.54
2023-09-08T03:43:41.566Z,101243.37
2023-09-08T03:46:08.471Z,101243.56
2023-09-08T03:48:36.403Z,101244.73
2023-09-08T03:51:03.517Z,101246.27
2023-09-08T03:53:32.941Z,101248.17
2023-09-08T03:56:00.947Z,101248.58
2023-09-08T03:58:29.448Z,101245.15
2023-09-08T04:00:58.145Z,101245.77
2023-09-08T04:03:26.551Z,101244.70
2023-09-08T04:05:54.766Z,101240.89
2023-09-08T04:08:23.170Z,101240.45
2023-09-08T04:10:51.358Z,101241.61
2023-09-08T04:13:19.850Z,101245.15
2023-09-08T04:15:47.629Z,101251.75
2023-09-08T04:18:15.668Z,101249.41
2023-09-08T04:20:43.638Z,101248.48
2023-09-08T04:23:11.447Z,101244.42
2023-09-08T04:25:38.650Z,101242.81
2023-09-08T04:28:07.440Z,101243.70
2023-09-08T04:30:36.027Z,101244.35
2023-09-08T04:33:04.492Z,101241.92
2023-09-08T04:35:32.879Z,101242.84
2023-09-08T04:38:03.405Z,101246.61
2023-09-08T04:40:32.457Z,101242.08
2023-09-08T04:43:01.118Z,101243.66
2023-09-08T04:45:28.909Z,101248.74
2023-09-08T04:47:56.454Z,101244.14
2023-09-08T04:50:24.919Z,101243.10
2023-09-08T04:52:52.714Z,101243.36
2023-09-08T04:55:20.230Z,101239.66
2023-09-08T04:57:47.542Z,101238.34
2023-09-08T05:00:18.017Z,101240.06
2023-09-08T05:02:45.864Z,101238.70
2023-09-08T05:05:14.412Z,101239.64
2023-09-08T05:07:42.695Z,101244.42
2023-09-08T05:10:11.985Z,101245.62
2023-09-08T05:12:39.954Z,101246.09
2023-09-08T05:15:15.349Z,101248.02
2023-09-08T05:17:43.688Z,101251.17
2023-09-08T05:20:11.883Z,101245.65
2023-09-08T05:22:39.694Z,101247.93
2023-09-08T05:25:07.405Z,101245.71
2023-09-08T05:27:35.567Z,101239.95
2023-09-08T05:30:04.696Z,101243.95
2023-09-08T05:32:32.699Z,101248.13
2023-09-08T05:35:00.930Z,101247.55
2023-09-08T05:37:28.768Z,101247.22
2023-09-08T05:39:56.637Z,101246.94
2023-09-08T05:42:25.002Z,101246.83
2023-09-08T05:44:55.074Z,101245.26
2023-09-08T05:47:22.941Z,101249.27
2023-09-08T05:49:50.718Z,101248.77
2023-09-08T05:52:18.714Z,101246.55
2023-09-08T05:54:46.903Z,101247.99
2023-09-08T05:57:14.998Z,101250.20
2023-09-08T05:59:42.960Z,101251.16
2023-09-08T06:02:10.804Z,101252.78
2023-09-08T06:04:38.620Z,101255.96
2023-09-08T06:07:05.592Z,101257.35
2023-09-08T06:09:33.790Z,101256.95
2023-09-08T06:12:02.319Z,101258.09
2023-09-08T06:14:30.084Z,101250.94
2023-09-08T06:16:57.932Z,101247.45
2023-09-08T06:19:26.144Z,101247.10
2023-09-08T06:21:54.562Z,101248.55
2023-09-08T06:24:22.440Z,101250.05
2023-09-08T06:26:50.773Z,101252.20
2023-09-08T06:29:18.634Z,101248.69
2023-09-08T06:31:47.695Z,101244.19
2023-09-08T06:34:15.669Z,101244.70
2023-09-08T06:36:43.991Z,101243.72
2023-09-08T06:39:12.196Z,101243.16
2023-09-08T06:41:40.813Z,101244.53
2023-09-08T06:44:08.696Z,101247.56
2023-09-08T06:46:36.581Z,101249.33
2023-09-08T06:49:05.334Z,101247.95
2023-09-08T06:51:33.612Z,101244.98
2023-09-08T06:54:01.555Z,101243.00
2023-09-08T06:56:30.441Z,101243.91
2023-09-08T06:58:58.858Z,101245.19
2023-09-08T07:01:27.076Z,101242.66
2023-09-08T07:03:55.241Z,101246.61
2023-09-08T07:06:24.290Z,101247.80
2023-09-08T07:08:52.114Z,101250.38
2023-09-08T07:11:20.594Z,101247.71
2023-09-08T07:13:48.516Z,101244.19
2023-09-08T07:16:17.160Z,101250.17
2023-09-08T07:18:45.024Z,101249.80
2023-09-08T07:21:12.974Z,101251.95
2023-09-08T07:23:41.083Z,101251.91
2023-09-08T07:26:08.910Z,101254.42
2023-09-08T07:28:37.274Z,101258.30
2023-09-08T07:31:09.511Z,101258.73
2023-09-08T07:33:37.677Z,101255.18
2023-09-08T07:36:07.614Z,101258.22
2023-09-08T07:38:36.069Z,101261.05
2023-09-08T07:41:04.635Z,101262.21
2023-09-08T07:43:33.165Z,101263.23
2023-09-08T07:46:01.598Z,101255.79
2023-09-08T07:48:29.598Z,101255.00
2023-09-08T07:50:59.021Z,101252.23
2023-09-08T07:53:26.895Z,101246.98
2023-09-08T07:55:54.933Z,101249.42
2023-09-08T07:58:23.322Z,101247.39
2023-09-08T08:00:51.407Z,101241.90
2023-09-08T08:03:19.910Z,101241.63
2023-09-08T08:05:48.458Z,101241.04
2023-09-08T08:08:16.442Z,101240.09
2023-09-08T08:10:44.835Z,101238.69
2023-09-08T08:13:12.639Z,101241.04
2023-09-08T08:15:43.168Z,101246.06
2023-09-08T08:18:11.231Z,101240.08
2023-09-08T08:20:39.881Z,101239.99
2023-09-08T08:23:08.834Z,101238.23
2023-09-08T08:25:38.906Z,101234.02
2023-09-08T08:28:07.374Z,101235.61
2023-09-08T08:30:35.920Z,101234.97
2023-09-08T08:33:04.816Z,101229.70
2023-09-08T08:35:32.721Z,101229.23
2023-09-08T08:38:01.063Z,101225.34
2023-09-08T08:40:29.773Z,101225.30
2023-09-08T08:43:01.401Z,101221.38
2023-09-08T08:45:31.313Z,101221.36
2023-09-08T08:48:00.667Z,101216.91
2023-09-08T08:50:29.027Z,101215.73
2023-09-08T08:52:57.385Z,101218.54
2023-09-08T08:55:27.506Z,101212.98
2023-09-08T08:57:56.361Z,101218.10
2023-09-08T09:00:24.295Z,101214.05
2023-09-08T09:03:07.176Z,101213.57
2023-09-08T09:05:42.396Z,101209.73
2023-09-08T09:08:13.674Z,101211.29
2023-09-08T09:10:41.544Z,101208.30
2023-09-08T09:13:09.986Z,101208.09
2023-09-08T09:15:38.758Z,101200.27
2023-09-08T09:18:09.550Z,101201.14
2023-09-08T09:20:37.718Z,101203.56
2023-09-08T09:23:06.251Z,101204.45
2023-09-08T09:25:34.579Z,101204.07
2023-09-08T09:28:03.640Z,101206.19
2023-09-08T09:30:51.584Z,101203.22
2023-09-08T09:33:19.885Z,101202.63
2023-09-08T09:35:50.214Z,101202.20
2023-09-08T09:38:19.234Z,101198.45
2023-09-08T09:40:47.895Z,101200.42
2023-09-08T09:43:17.174Z,101195.79
2023-09-08T09:45:45.721Z,101190.81
2023-09-08T09:48:14.054Z,101186.99
2023-09-08T09:50:43.565Z,101188.66
2023-09-08T09:53:13.190Z,101187.67
2023-09-08T09:55:42.426Z,101186.20
2023-09-08T09:58:11.484Z,101186.96
2023-09-08T10:00:41.568Z,101188.50
2023-09-08T10:03:11.208Z,101190.98
2023-09-08T10:05:39.839Z,101185.23
2023-09-08T10:08:08.506Z,101186.39
2023-09-08T10:10:36.914Z,101187.27
2023-09-08T10:13:07.551Z,101185.05
2023-09-08T10:15:36.294Z,101187.52
2023-09-08T10:18:06.441Z,101183.68
2023-09-08T10:20:37.576Z,101183.88
2023-09-08T10:23:28.393Z,101183.86
2023-09-08T10:26:02.087Z,101180.48
2023-09-08T10:28:33.300Z,101178.61
2023-09-08T10:31:02.811Z,101177.45
2023-09-08T10:33:32.228Z,101172.91
2023-09-08T10:36:03.538Z,101165.70
2023-09-08T10:38:34.289Z,101167.77
2023-09-08T10:41:32.741Z,101162.36
2023-09-08T10:44:05.124Z,101159.91
2023-09-08T10:46:33.944Z,101161.26
2023-09-08T10:49:07.576Z,101160.86
2023-09-08T10:51:36.276Z,101164.42
2023-09-08T10:54:04.729Z,101162.02
2023-09-08T10:56:54.810Z,101164.59
2023-09-08T10:59:28.446Z,101168.52
2023-09-08T11:01:57.002Z,101167.38
2023-09-08T11:04:26.287Z,101163.80
2023-09-08T11:06:56.833Z,101164.84
2023-09-08T11:09:24.943Z,101160.18
2023-09-08T11:11:53.106Z,101163.80
2023-09-08T11:14:21.020Z,101159.48
2023-09-08T11:16:49.254Z,101158.70
2023-09-08T11:19:17.912Z,101164.01
2023-09-08T11:21:46.333Z,101160.75
2023-09-08T11:24:15.359Z,101155.45
2023-09-08T11:26:47.013Z,101154.23
2023-09-08T11:29:16.157Z,101154.20
2023-09-08T11:31:44.977Z,101149.20
2023-09-08T11:34:15.136Z,101147.86
2023-09-08T11:36:42.937Z,101145.16
2023-09-08T11:39:11.741Z,101142.98
2023-09-08T11:41:40.288Z,101140.55
2023-09-08T11:44:08.232Z,101146.49
2023-09-08T11:46:36.381Z,101144.70
2023-09-08T11:49:06.372Z,101146.88
2023-09-08T11:51:34.453Z,101144.84
2023-09-08T11:54:03.451Z,101140.55
2023-09-08T11:56:32.566Z,101140.40
2023-09-08T11:59:02.671Z,101140.51
2023-09-08T12:01:31.226Z,101137.05
2023-09-08T12:03:59.197Z,101133.48
2023-09-08T12:06:28.720Z,101131.42
2023-09-08T12:08:59.512Z,101127.23
2023-09-08T12:11:35.252Z,101125.17
2023-09-08T12:14:07.397Z,101127.71
2023-09-08T12:16:35.768Z,101122.27
2023-09-08T12:19:04.025Z,101121.98
2023-09-08T12:21:32.976Z,101114.80
2023-09-08T12:24:00.754Z,101110.57
2023-09-08T12:26:30.535Z,101114.16
2023-09-08T12:28:58.634Z,101114.63
2023-09-08T12:31:26.823Z,101114.70
2023-09-08T12:33:55.628Z,101113.17
2023-09-08T12:36:25.444Z,101111.05
2023-09-08T12:38:54.067Z,101109.56
2023-09-08T12:41:22.047Z,101108.29
2023-09-08T12:43:50.747Z,101103.95
2023-09-08T12:46:19.631Z,101107.18
2023-09-08T12:48:47.973Z,101103.09
2023-09-08T12:51:16.105Z,101101.56
2023-09-08T12:53:43.797Z,101094.82
2023-09-08T12:56:11.604Z,101094.42
2023-09-08T12:58:39.357Z,101094.89
2023-09-08T13:01:07.559Z,101093.35
2023-09-08T13:03:35.692Z,101091.67
2023-09-08T13:06:03.651Z,101095.31
2023-09-08T13:08:32.135Z,101096.30
2023-09-08T13:10:59.983Z,101096.35
2023-09-08T13:13:29.746Z,101092.27
2023-09-08T13:15:58.374Z,101083.91
2023-09-08T13:18:26.944Z,101081.92
2023-09-08T13:20:54.586Z,101076.92
2023-09-08T13:23:23.027Z,101075.02
2023-09-08T13:25:51.466Z,101069.00
2023-09-08T13:28:19.511Z,101067.64
2023-09-08T13:30:47.325Z,101064.48
2023-09-08T13:33:15.344Z,101066.69
2023-09-08T13:35:43.893Z,101065.02
2023-09-08T13:38:11.759Z,101062.48
2023-09-08T13:40:40.161Z,101056.84
2023-09-08T13:43:07.999Z,101057.91
2023-09-08T13:45:36.904Z,101057.65
2023-09-08T13:48:07.354Z,101051.49
2023-09-08T13:50:37.465Z,101050.45
2023-09-08T13:53:06.097Z,101046.60
2023-09-08T13:55:38.459Z,101041.58
2023-09-08T13:58:09.571Z,101043.75
2023-09-08T14:00:39.662Z,101046.61
2023-09-08T14:03:13.167Z,101046.71
2023-09-08T14:05:45.940Z,101049.09
2023-09-08T14:08:18.567Z,101045.95
2023-09-08T14:10:53.836Z,101045.54
2023-09-08T14:13:32.624Z,101044.00
2023-09-08T14:16:03.007Z,101042.84
2023-09-08T14:18:30.972Z,101042.70
2023-09-08T14:20:58.923Z,101042.26
2023-09-08T14:23:27.472Z,101036.76
2023-09-08T14:25:55.328Z,101038.48
2023-09-08T14:28:23.508Z,101035.97
2023-09-08T14:30:52.354Z,101033.33
2023-09-08T14:33:20.648Z,101033.71
2023-09-08T14:35:51.793Z,101030.05
2023-09-08T14:38:19.785Z,101032.70
2023-09-08T14:40:55.950Z,101029.35
2023-09-08T14:43:24.098Z,101029.16
2023-09-08T14:45:52.615Z,101027.63
2023-09-08T14:48:21.083Z,101027.38
2023-09-08T14:50:49.939Z,101029.94
2023-09-08T14:53:18.208Z,101027.81
2023-09-08T14:55:48.340Z,101027.52
2023-09-08T14:58:16.156Z,101028.53
2023-09-08T15:00:45.634Z,101028.46
2023-09-08T15:03:13.651Z,101026.95
2023-09-08T15:05:41.480Z,101029.42
2023-09-08T15:08:09.759Z,101027.80
2023-09-08T15:10:37.753Z,101026.89
2023-09-08T15:13:06.155Z,101022.56
2023-09-08T15:15:34.023Z,101022.15
2023-09-08T15:18:01.924Z,101019.02
2023-09-08T15:20:29.763Z,101019.48
2023-09-08T15:22:58.014Z,101017.52
2023-09-08T15:25:26.018Z,101018.29
2023-09-08T15:27:53.745Z,101015.67
2023-09-08T15:30:21.921Z,101013.31
2023-09-08T15:32:50.156Z,101012.95
2023-09-08T15:35:18.449Z,101008.97
2023-09-08T15:37:46.194Z,101005.00
2023-09-08T15:40:14.700Z,101004.23
2023-09-08T15:42:43.803Z,100999.02
2023-09-08T15:45:12.558Z,100996.16
2023-09-08T15:47:40.632Z,100991.44
2023-09-08T15:50:10.796Z,100990.71
2023-09-08T15:52:38.877Z,100989.16
2023-09-08T15:55:08.263Z,100987.27
2023-09-08T15:57:35.957Z,100990.24
2023-09-08T16:00:07.211Z,100994.47
2023-09-08T16:02:35.763Z,100995.27
2023-09-08T16:05:03.917Z,100994.54
2023-09-08T16:07:32.042Z,100995.36
2023-09-08T16:10:00.224Z,100992.45
2023-09-08T16:12:28.459Z,100987.52
2023-09-08T16:14:56.230Z,100987.88
2023-09-08T16:17:25.869Z,100982.27
2023-09-08T16:19:53.784Z,100982.69
2023-09-08T16:22:22.133Z,100980.62
2023-09-08T16:24:49.985Z,100977.83
2023-09-08T16:27:17.972Z,100977.70
2023-09-08T16:29:46.202Z,100979.29
2023-09-08T16:32:13.990Z,100980.53
2023-09-08T16:34:42.594Z,100977.19
2023-09-08T16:37:10.717Z,100980.05
2023-09-08T16:39:38.863Z,100980.45
2023-09-08T16:42:07.251Z,100979.76
2023-09-08T16:44:35.358Z,100979.80
2023-09-08T16:47:03.701Z,100984.02
2023-09-08T16:49:32.221Z,100987.27
2023-09-08T16:52:01.117Z,100986.67
2023-09-08T16:54:29.067Z,100989.88
2023-09-08T16:56:58.615Z,100992.36
2023-09-08T16:59:26.809Z,100991.82
2023-09-08T17:01:54.634Z,100994.54
2023-09-08T17:04:22.916Z,100994.83
2023-09-08T17:06:51.008Z,100996.71
2023-09-08T17:09:18.895Z,100994.07
2023-09-08T17:11:47.194Z,100996.91
2023-09-08T17:14:15.234Z,100997.54
2023-09-08T17:16:43.420Z,100997.20
2023-09-08T17:19:12.166Z,100996.50
2023-09-08T17:21:40.553Z,100995.71
2023-09-08T17:24:09.652Z,100998.52
2023-09-08T17:26:37.763Z,100999.91
2023-09-08T17:29:08.080Z,100999.98
2023-09-08T17:31:36.466Z,101001.40
2023-09-08T17:34:07.730Z,101002.34
2023-09-08T17:36:36.119Z,101003.70
2023-09-08T17:39:05.596Z,101001.91
2023-09-08T17:41:33.844Z,101004.96
2023-09-08T17:44:02.011Z,101004.88
2023-09-08T17:46:33.535Z,101011.88
2023-09-08T17:49:02.162Z,101007.52
2023-09-08T17:51:29.979Z,101013.35
2023-09-08T17:53:58.259Z,101012.85
2023-09-08T17:56:26.490Z,101009.89
2023-09-08T17:58:54.871Z,101011.45
2023-09-08T18:01:22.976Z,101011.16
2023-09-08T18:03:51.193Z,101011.35
2023-09-08T18:06:19.434Z,101010.20
2023-09-08T18:08:50.858Z,101008.69
2023-09-08T18:11:20.950Z,101015.35
2023-09-08T18:13:49.911Z,101015.85
2023-09-08T18:16:18.832Z,101014.14
2023-09-08T18:18:47.632Z,101017.52
2023-09-08T18:21:15.807Z,101018.80
2023-09-08T18:23:44.102Z,101020.95
2023-09-08T18:26:11.900Z,101021.34
2023-09-08T18:28:40.148Z,101015.20
2023-09-08T18:31:08.429Z,101012.33
2023-09-08T18:33:36.826Z,101013.91
2023-09-08T18:36:07.017Z,101015.02
2023-09-08T18:38:35.300Z,101015.21
2023-09-08T18:41:03.644Z,101017.23
2023-09-08T18:43:31.978Z,101014.89
2023-09-08T18:46:00.221Z,101016.38
2023-09-08T18:48:28.434Z,101017.33
2023-09-08T18:50:56.328Z,101014.46
2023-09-08T18:53:24.597Z,101012.61
2023-09-08T18:55:53.140Z,101013.64
2023-09-08T18:58:23.232Z,101016.57
2023-09-08T19:00:51.767Z,101016.88
2023-09-08T19:03:19.799Z,101020.15
2023-09-08T19:05:48.048Z,101021.13
2023-09-08T19:08:15.787Z,101021.98
2023-09-08T19:10:43.604Z,101021.15
2023-09-08T19:13:11.970Z,101018.16
2023-09-08T19:15:40.589Z,101016.00
2023-09-08T19:18:08.451Z,101015.12
2023-09-08T19:20:37.167Z,101011.69
2023-09-08T19:23:05.668Z,101015.73
2023-09-08T19:25:37.675Z,101016.24
2023-09-08T19:28:07.462Z,101012.97
2023-09-08T19:30:35.242Z,101013.11
2023-09-08T19:33:03.541Z,101013.86
2023-09-08T19:35:34.694Z,101010.80
2023-09-08T19:38:02.763Z,101009.75
2023-09-08T19:40:30.482Z,101008.02
2023-09-08T19:42:58.557Z,101005.45
2023-09-08T19:45:26.413Z,101006.73
2023-09-08T19:47:55.433Z,101006.04
2023-09-08T19:50:23.384Z,101010.27
2023-09-08T19:52:51.200Z,101011.77
2023-09-08T19:55:19.001Z,101014.27
2023-09-08T19:57:47.009Z,101016.32
2023-09-08T20:00:16.153Z,101018.69
2023-09-08T20:02:45.052Z,101020.65
2023-09-08T20:05:12.840Z,101017.77
2023-09-08T20:07:41.232Z,101020.36
2023-09-08T20:10:12.097Z,101016.52
2023-09-08T20:12:41.775Z,101015.09
2023-09-08T20:15:11.692Z,101013.30
2023-09-08T20:17:40.932Z,101011.17
2023-09-08T20:20:11.398Z,101012.88
2023-09-08T20:22:39.405Z,101009.13
2023-09-08T20:25:09.895Z,101011.33
2023-09-08T20:27:37.985Z,101012.31
2023-09-08T20:30:08.946Z,101007.83
2023-09-08T20:32:37.011Z,101010.30
2023-09-08T20:35:07.796Z,101011.11
2023-09-08T20:37:35.951Z,101012.39
2023-09-08T20:40:05.992Z,101012.63
2023-09-08T20:42:34.026Z,101014.77
2023-09-08T20:45:02.085Z,101015.15
2023-09-08T20:47:30.196Z,101018.24
2023-09-08T20:49:57.901Z,101018.77
2023-09-08T20:52:25.661Z,101019.02
2023-09-08T20:54:54.129Z,101020.63
2023-09-08T20:57:22.089Z,101020.34
2023-09-08T20:59:49.740Z,101023.73
2023-09-08T21:02:17.224Z,101019.48
2023-09-08T21:04:45.349Z,101020.61
2023-09-08T21:07:13.829Z,101022.72
2023-09-08T21:09:42.106Z,101024.85
2023-09-08T21:12:10.710Z,101025.48
2023-09-08T21:14:40.076Z,101017.95
2023-09-08T21:17:07.993Z,101019.32
2023-09-08T21:19:35.736Z,101018.48
2023-09-08T21:22:04.268Z,101020.67
2023-09-08T21:24:32.806Z,101021.37
2023-09-08T21:27:00.504Z,101020.51
2023-09-08T21:29:28.614Z,101021.02
2023-09-08T21:31:57.366Z,101017.19
2023-09-08T21:34:25.532Z,101017.95
2023-09-08T21:36:53.617Z,101017.33
2023-09-08T21:39:22.448Z,101015.09
2023-09-08T21:41:50.287Z,101015.86
2023-09-08T21:44:18.339Z,101011.59
2023-09-08T21:46:46.173Z,101009.78
2023-09-08T21:49:13.961Z,101012.02
2023-09-08T21:51:44.248Z,101009.98
2023-09-08T21:54:13.001Z,101006.61
2023-09-08T21:56:41.088Z,101008.54
2023-09-08T21:59:08.820Z,101003.01
2023-09-08T22:01:35.898Z,101004.88
2023-09-08T22:04:04.662Z,101005.25
2023-09-08T22:06:33.000Z,101000.28
2023-09-08T22:09:01.822Z,101001.14
2023-09-08T22:11:31.139Z,101003.31
2023-09-08T22:13:59.381Z,101002.08
2023-09-08T22:16:29.229Z,101000.52
2023-09-08T22:18:57.349Z,101000.89
2023-09-08T22:21:25.334Z,101000.71
2023-09-08T22:23:53.539Z,101002.76
2023-09-08T22:26:21.880Z,101003.58
2023-09-08T22:28:50.322Z,101001.91
2023-09-08T22:31:18.367Z,101001.59
2023-09-08T22:33:48.131Z,100999.77
2023-09-08T22:36:16.149Z,100999.94
2023-09-08T22:38:43.870Z,100996.67
2023-09-08T22:41:12.047Z,100996.05
2023-09-08T22:43:41.050Z,100997.89
2023-09-08T22:46:09.291Z,100995.67
2023-09-08T22:48:37.099Z,100993.71
2023-09-08T22:51:05.148Z,100993.01
2023-09-08T22:53:33.016Z,100990.97
2023-09-08T22:56:00.969Z,100990.67
2023-09-08T22:58:39.330Z,100988.81
2023-09-08T23:01:07.315Z,100992.66
2023-09-08T23:03:35.786Z,100995.41
2023-09-08T23:06:04.909Z,100996.61
2023-09-08T23:08:32.677Z,100994.77
2023-09-08T23:11:00.419Z,100993.95
2023-09-08T23:13:29.029Z,100992.73
2023-09-08T23:15:57.349Z,100988.31
2023-09-08T23:18:25.400Z,100989.66
2023-09-08T23:20:54.273Z,100994.29
2023-09-08T23:23:22.039Z,100987.73
2023-09-08T23:25:50.806Z,100991.95
2023-09-08T23:28:18.830Z,100986.79
2023-09-08T23:30:47.202Z,100980.68
2023-09-08T23:33:15.593Z,100981.23
2023-09-08T23:35:43.483Z,100977.69
2023-09-08T23:38:11.018Z,100976.42
2023-09-08T23:40:38.756Z,100974.68
2023-09-08T23:43:05.628Z,100973.26
2023-09-08T23:45:33.474Z,100973.22
2023-09-08T23:48:02.202Z,100974.89
2023-09-08T23:50:56.616Z,100968.77
2023-09-08T23:53:25.349Z,100971.11
2023-09-08T23:55:54.423Z,100967.48
2023-09-08T23:58:22.862Z,100966.46
